createdAt,value
2023-01-04T00:01:06.155Z,7.70
2023-01-04T00:03:33.236Z,8.47
2023-01-04T00:06:03.454Z,8.67
2023-01-04T00:08:30.418Z,8.10
2023-01-04T00:11:08.561Z,8.43
2023-01-04T00:13:37.655Z,8.50
2023-01-04T00:16:08.193Z,9.20
2023-01-04T00:18:35.868Z,8.23
2023-01-04T00:21:17.165Z,9.77
2023-01-04T00:23:45.875Z,9.67
2023-01-04T00:26:15.116Z,10.00
2023-01-04T00:28:41.957Z,10.27
2023-01-04T00:31:10.941Z,11.60
2023-01-04T00:33:37.725Z,11.70
2023-01-04T00:36:12.390Z,10.50
2023-01-04T00:38:40.218Z,10.37
2023-01-04T00:41:12.447Z,10.40
2023-01-04T00:43:45.307Z,12.07
2023-01-04T00:46:11.913Z,10.53
2023-01-04T00:48:40.435Z,12.07
2023-01-04T00:51:07.257Z,11.33
2023-01-04T00:53:34.431Z,12.23
2023-01-04T00:56:01.627Z,12.03
2023-01-04T00:58:28.199Z,12.63
2023-01-04T01:00:55.544Z,13.03
2023-01-04T01:03:22.214Z,12.87
2023-01-04T01:05:48.758Z,13.00
2023-01-04T01:08:27.449Z,14.23
2023-01-04T01:10:54.617Z,13.87
2023-01-04T01:13:22.016Z,14.63
2023-01-04T01:15:48.857Z,13.77
2023-01-04T01:18:15.564Z,14.00
2023-01-04T01:20:43.975Z,14.43
2023-01-04T01:23:14.562Z,14.50
2023-01-04T01:25:41.751Z,14.73
2023-01-04T01:28:08.537Z,14.73
2023-01-04T01:30:35.200Z,15.30
2023-01-04T01:33:01.686Z,13.97
2023-01-04T01:35:28.163Z,14.60
2023-01-04T01:37:54.695Z,14.87
2023-01-04T01:40:21.244Z,14.37
2023-01-04T01:42:47.837Z,13.93
2023-01-04T01:45:34.061Z,14.77
2023-01-04T01:48:11.654Z,15.10
2023-01-04T01:50:44.639Z,14.73
2023-01-04T01:53:11.678Z,15.87
2023-01-04T01:55:40.376Z,15.50
2023-01-04T01:58:07.891Z,15.27
2023-01-04T02:00:35.072Z,14.93
2023-01-04T02:03:17.033Z,14.07
2023-01-04T02:05:44.683Z,14.27
2023-01-04T02:08:12.022Z,14.77
2023-01-04T02:10:38.637Z,15.83
2023-01-04T02:13:12.457Z,15.70
2023-01-04T02:16:31.785Z,15.23
2023-01-04T02:19:24.622Z,15.13
2023-01-04T02:22:07.536Z,15.10
2023-01-04T02:24:52.621Z,14.37
2023-01-04T02:27:47.167Z,15.27
2023-01-04T02:30:51.394Z,13.80
2023-01-04T02:33:42.483Z,14.87
2023-01-04T02:36:19.498Z,14.93
2023-01-04T02:39:04.407Z,15.80
2023-01-04T02:41:42.951Z,15.67
2023-01-04T02:44:34.350Z,16.70
2023-01-04T02:47:09.127Z,15.93
2023-01-04T02:49:57.884Z,14.67
2023-01-04T02:52:28.856Z,16.63
2023-01-04T02:54:57.500Z,15.70
2023-01-04T02:57:38.922Z,15.93
2023-01-04T03:00:26.606Z,16.77
2023-01-04T03:03:24.303Z,16.30
2023-01-04T03:06:20.429Z,16.33
2023-01-04T03:08:56.746Z,17.20
2023-01-04T03:11:46.761Z,17.47
2023-01-04T03:14:31.696Z,16.33
2023-01-04T03:17:02.481Z,15.60
2023-01-04T03:19:49.719Z,15.67
2023-01-04T03:22:37.900Z,15.80
2023-01-04T03:25:23.582Z,15.77
2023-01-04T03:28:09.382Z,14.93
2023-01-04T03:30:59.154Z,15.17
2023-01-04T03:33:44.370Z,15.93
2023-01-04T03:36:29.314Z,16.93
2023-01-04T03:39:23.689Z,16.60
2023-01-04T03:42:26.767Z,16.00
2023-01-04T03:45:39.097Z,15.87
2023-01-04T03:48:31.928Z,16.43
2023-01-04T03:51:02.030Z,16.53
2023-01-04T03:53:29.165Z,14.93
2023-01-04T03:55:56.716Z,15.83
2023-01-04T03:58:23.225Z,15.90
2023-01-04T04:00:49.785Z,15.00
2023-01-04T04:03:16.500Z,15.27
2023-01-04T04:06:02.987Z,14.60
2023-01-04T04:08:30.403Z,15.03
2023-01-04T04:11:20.252Z,14.83
2023-01-04T04:13:50.769Z,14.83
2023-01-04T04:16:17.674Z,14.27
2023-01-04T04:18:44.262Z,14.50
2023-01-04T04:21:10.773Z,14.60
2023-01-04T04:23:37.347Z,15.67
2023-01-04T04:26:03.961Z,15.13
2023-01-04T04:28:30.391Z,14.90
2023-01-04T04:30:56.963Z,15.17
2023-01-04T04:33:23.470Z,15.60
2023-01-04T04:35:53.519Z,15.20
2023-01-04T04:38:21.329Z,15.13
2023-01-04T04:41:11.973Z,15.27
2023-01-04T04:43:38.480Z,14.90
2023-01-04T04:46:05.227Z,15.43
2023-01-04T04:48:31.759Z,16.20
2023-01-04T04:50:58.345Z,16.73
2023-01-04T04:53:24.896Z,16.00
2023-01-04T04:55:52.304Z,16.40
2023-01-04T04:58:19.271Z,13.93
2023-01-04T05:00:45.855Z,16.17
2023-01-04T05:03:12.554Z,15.23
2023-01-04T05:05:39.238Z,15.13
2023-01-04T05:08:05.774Z,15.23
2023-01-04T05:10:32.294Z,16.53
2023-01-04T05:13:01.697Z,15.70
2023-01-04T05:15:35.233Z,16.17
2023-01-04T05:18:02.400Z,15.40
2023-01-04T05:20:28.923Z,16.33
2023-01-04T05:22:55.421Z,16.43
2023-01-04T05:25:22.081Z,17.23
2023-01-04T05:27:48.591Z,17.10
2023-01-04T05:30:35.840Z,15.97
2023-01-04T05:33:02.814Z,16.80
2023-01-04T05:35:29.787Z,16.83
2023-01-04T05:37:56.538Z,17.00
2023-01-04T05:40:23.274Z,17.07
2023-01-04T05:42:49.895Z,18.47
2023-01-04T05:45:17.415Z,17.47
2023-01-04T05:47:43.960Z,16.93
2023-01-04T05:50:10.660Z,17.37
2023-01-04T05:52:37.410Z,18.57
2023-01-04T05:55:04.432Z,18.13
2023-01-04T05:57:30.912Z,18.20
2023-01-04T05:59:57.382Z,18.97
2023-01-04T06:02:26.256Z,18.60
2023-01-04T06:04:58.371Z,17.93
2023-01-04T06:07:26.163Z,18.90
2023-01-04T06:09:52.658Z,19.00
2023-01-04T06:12:19.554Z,18.60
2023-01-04T06:14:46.125Z,19.27
2023-01-04T06:17:12.703Z,18.73
2023-01-04T06:19:39.279Z,19.10
2023-01-04T06:22:07.790Z,18.10
2023-01-04T06:24:34.320Z,20.27
2023-01-04T06:27:03.912Z,18.97
2023-01-04T06:29:30.440Z,20.23
2023-01-04T06:31:56.996Z,18.90
2023-01-04T06:34:30.232Z,19.40
2023-01-04T06:36:57.431Z,19.00
2023-01-04T06:39:24.120Z,18.93
2023-01-04T06:41:50.631Z,18.73
2023-01-04T06:44:17.165Z,18.83
2023-01-04T06:46:43.805Z,18.33
2023-01-04T06:49:10.395Z,17.33
2023-01-04T06:51:37.135Z,17.07
2023-01-04T06:54:03.677Z,17.37
2023-01-04T06:56:32.014Z,18.50
2023-01-04T06:58:59.004Z,19.00
2023-01-04T07:01:26.012Z,18.30
2023-01-04T07:03:52.676Z,17.63
2023-01-04T07:06:22.614Z,17.83
2023-01-04T07:08:49.341Z,18.63
2023-01-04T07:11:15.843Z,19.77
2023-01-04T07:13:42.372Z,18.93
2023-01-04T07:16:09.060Z,18.07
2023-01-04T07:18:36.719Z,18.23
2023-01-04T07:21:03.400Z,18.97
2023-01-04T07:23:29.941Z,21.13
2023-01-04T07:26:01.235Z,20.43
2023-01-04T07:28:46.442Z,19.13
2023-01-04T07:31:13.156Z,19.20
2023-01-04T07:33:39.859Z,21.90
2023-01-04T07:36:06.951Z,19.17
2023-01-04T07:38:34.645Z,20.00
2023-01-04T07:41:01.323Z,21.57
2023-01-04T07:43:28.714Z,20.93
2023-01-04T07:45:55.758Z,21.50
2023-01-04T07:48:22.503Z,20.83
2023-01-04T07:50:50.315Z,19.70
2023-01-04T07:53:17.055Z,19.03
2023-01-04T07:55:43.615Z,20.27
2023-01-04T07:58:10.163Z,19.20
2023-01-04T08:00:36.684Z,20.03
2023-01-04T08:03:03.544Z,19.17
2023-01-04T08:05:34.257Z,19.50
2023-01-04T08:08:01.112Z,19.47
2023-01-04T08:10:27.930Z,19.97
2023-01-04T08:12:54.650Z,19.53
2023-01-04T08:15:21.331Z,19.50
2023-01-04T08:17:47.962Z,19.73
2023-01-04T08:20:14.618Z,19.77
2023-01-04T08:22:41.099Z,20.40
2023-01-04T08:25:08.137Z,19.70
2023-01-04T08:27:34.734Z,21.63
2023-01-04T08:30:01.302Z,20.53
2023-01-04T08:32:28.110Z,21.03
2023-01-04T08:34:54.758Z,18.67
2023-01-04T08:37:21.567Z,19.97
2023-01-04T08:39:49.757Z,19.60
2023-01-04T08:42:24.772Z,21.37
2023-01-04T08:45:01.954Z,19.70
2023-01-04T08:47:35.974Z,20.93
2023-01-04T08:50:09.958Z,21.67
2023-01-04T08:52:38.308Z,19.17
2023-01-04T08:55:12.517Z,18.70
2023-01-04T08:57:40.953Z,18.37
2023-01-04T09:00:08.402Z,15.70
2023-01-04T09:02:35.348Z,15.77
2023-01-04T09:05:04.271Z,15.63
2023-01-04T09:07:31.604Z,15.27
2023-01-04T09:09:58.347Z,16.23
2023-01-04T09:12:24.962Z,15.50
2023-01-04T09:14:51.804Z,15.00
2023-01-04T09:17:20.106Z,14.97
2023-01-04T09:19:46.707Z,13.77
2023-01-04T09:22:17.139Z,14.00
2023-01-04T09:24:45.258Z,13.73
2023-01-04T09:27:11.984Z,13.90
2023-01-04T09:29:38.542Z,14.17
2023-01-04T09:32:05.205Z,14.60
2023-01-04T09:34:32.011Z,15.57
2023-01-04T09:36:58.553Z,16.93
2023-01-04T09:39:26.517Z,15.47
2023-01-04T09:42:04.242Z,15.27
2023-01-04T09:47:34.688Z,15.63
2023-01-04T09:50:07.828Z,14.40
2023-01-04T09:52:39.199Z,14.33
2023-01-04T09:55:37.600Z,14.00
2023-01-04T09:58:05.483Z,13.67
2023-01-04T10:00:41.779Z,14.27
2023-01-04T10:03:18.359Z,13.53
2023-01-04T10:05:45.219Z,13.30
2023-01-04T10:08:23.468Z,13.73
2023-01-04T10:10:54.740Z,13.30
2023-01-04T10:13:39.009Z,12.57
2023-01-04T10:16:44.343Z,13.10
2023-01-04T10:21:10.369Z,13.23
2023-01-04T10:22:26.633Z,12.40
2023-01-04T10:25:23.669Z,12.10
2023-01-04T10:28:06.226Z,12.50
2023-01-04T10:30:32.678Z,11.63
2023-01-04T10:33:10.170Z,12.33
2023-01-04T10:35:37.290Z,12.20
2023-01-04T10:38:10.585Z,11.60
2023-01-04T10:40:39.694Z,12.57
2023-01-04T10:43:15.144Z,12.97
2023-01-04T10:46:03.494Z,13.77
2023-01-04T10:48:36.039Z,14.13
2023-01-04T10:51:09.824Z,15.17
2023-01-04T10:53:44.659Z,13.67
2023-01-04T10:56:31.164Z,13.80
2023-01-04T10:58:57.812Z,13.63
2023-01-04T11:01:32.231Z,13.43
2023-01-04T11:04:36.110Z,12.50
2023-01-04T11:07:21.213Z,12.40
2023-01-04T11:09:50.871Z,14.20
2023-01-04T11:12:20.525Z,14.23
2023-01-04T11:14:47.460Z,14.40
2023-01-04T11:17:14.216Z,14.40
2023-01-04T11:19:41.576Z,15.00
2023-01-04T11:22:43.570Z,15.27
2023-01-04T11:28:36.441Z,14.80
2023-01-04T11:31:09.373Z,14.33
2023-01-04T11:33:59.592Z,14.23
2023-01-04T11:36:39.378Z,16.13
2023-01-04T11:39:16.615Z,15.80
2023-01-04T11:42:02.596Z,15.60
2023-01-04T11:44:31.996Z,15.53
2023-01-04T11:47:29.888Z,16.83
2023-01-04T11:49:59.673Z,15.23
2023-01-04T11:52:37.573Z,15.63
2023-01-04T11:55:24.034Z,16.13
2023-01-04T11:58:12.318Z,15.67
2023-01-04T12:00:49.677Z,15.73
2023-01-04T12:03:19.232Z,15.27
2023-01-04T12:05:45.951Z,15.33
2023-01-04T12:08:31.439Z,16.03
2023-01-04T12:10:59.379Z,15.47
2023-01-04T12:13:25.906Z,16.33
2023-01-04T12:15:58.292Z,16.70
2023-01-04T12:18:36.515Z,16.47
2023-01-04T12:21:03.629Z,15.60
2023-01-04T12:23:30.661Z,16.17
2023-01-04T12:25:57.441Z,15.97
2023-01-04T12:28:31.178Z,15.27
2023-01-04T12:31:22.733Z,16.10
2023-01-04T12:33:59.069Z,15.83
2023-01-04T12:36:37.626Z,15.97
2023-01-04T12:39:13.865Z,15.80
2023-01-04T12:41:40.519Z,15.90
2023-01-04T12:44:43.407Z,16.50
2023-01-04T12:47:37.713Z,15.67
2023-01-04T12:50:13.525Z,15.17
2023-01-04T12:55:44.974Z,16.90
2023-01-04T12:58:58.222Z,16.33
2023-01-04T13:01:25.056Z,16.70
2023-01-04T13:04:02.577Z,16.83
2023-01-04T13:06:34.647Z,18.10
2023-01-04T13:09:01.727Z,18.33
2023-01-04T13:11:46.360Z,17.13
2023-01-04T13:14:30.402Z,16.23
2023-01-04T13:17:11.234Z,17.03
2023-01-04T13:19:39.161Z,17.17
2023-01-04T13:22:17.605Z,18.37
2023-01-04T13:24:45.311Z,17.30
2023-01-04T13:27:22.689Z,17.77
2023-01-04T13:29:50.457Z,18.80
2023-01-04T13:32:21.370Z,17.43
2023-01-04T13:35:14.723Z,16.63
2023-01-04T13:37:45.780Z,17.17
2023-01-04T13:40:25.142Z,17.23
2023-01-04T13:43:15.945Z,15.70
2023-01-04T13:45:51.675Z,15.87
2023-01-04T13:48:21.451Z,17.00
2023-01-04T13:51:02.547Z,17.30
2023-01-04T13:53:30.303Z,15.97
2023-01-04T13:55:59.192Z,15.87
2023-01-04T13:58:36.354Z,15.43
2023-01-04T14:01:08.247Z,14.63
2023-01-04T14:03:43.931Z,16.23
2023-01-04T14:06:10.633Z,15.77
2023-01-04T14:08:53.917Z,15.00
2023-01-04T14:11:48.786Z,15.27
2023-01-04T14:14:23.879Z,15.20
2023-01-04T14:16:51.433Z,13.87
2023-01-04T14:19:32.773Z,13.47
2023-01-04T14:21:59.627Z,14.50
2023-01-04T14:27:34.905Z,13.40
2023-01-04T14:30:20.515Z,13.23
2023-01-04T14:33:13.643Z,13.83
2023-01-04T14:35:44.153Z,13.47
2023-01-04T14:38:18.034Z,13.67
2023-01-04T14:40:45.813Z,12.47
2023-01-04T14:43:35.329Z,12.30
2023-01-04T14:46:02.199Z,12.83
2023-01-04T14:48:30.059Z,11.97
2023-01-04T14:50:57.655Z,12.30
2023-01-04T14:53:24.901Z,11.73
2023-01-04T14:55:51.527Z,12.57
2023-01-04T14:58:18.016Z,12.13
2023-01-04T15:00:45.013Z,12.37
2023-01-04T15:03:11.579Z,12.83
2023-01-04T15:05:38.308Z,12.60
2023-01-04T15:08:05.026Z,11.80
2023-01-04T15:10:31.555Z,12.60
2023-01-04T15:13:00.607Z,12.27
2023-01-04T15:15:27.183Z,12.43
2023-01-04T15:17:53.753Z,11.83
2023-01-04T15:20:20.248Z,12.70
2023-01-04T15:22:46.720Z,13.47
2023-01-04T15:25:13.456Z,13.20
2023-01-04T15:27:42.434Z,13.53
2023-01-04T15:30:13.759Z,12.63
2023-01-04T15:32:40.781Z,13.53
2023-01-04T15:35:09.746Z,12.27
2023-01-04T15:37:36.368Z,13.20
2023-01-04T15:40:04.050Z,12.17
2023-01-04T15:42:49.661Z,12.90
2023-01-04T15:45:16.774Z,13.47
2023-01-04T15:47:43.509Z,12.97
2023-01-04T15:50:10.180Z,12.13
2023-01-04T15:52:37.409Z,12.03
2023-01-04T15:55:04.166Z,12.00
2023-01-04T15:57:31.018Z,11.90
2023-01-04T15:59:57.589Z,11.23
2023-01-04T16:02:24.587Z,11.87
2023-01-04T16:04:51.401Z,10.60
2023-01-04T16:07:17.962Z,10.83
2023-01-04T16:09:44.646Z,10.47
2023-01-04T16:12:29.790Z,11.17
2023-01-04T16:14:56.339Z,10.40
2023-01-04T16:17:22.857Z,9.57
2023-01-04T16:19:49.386Z,9.23
2023-01-04T16:22:15.960Z,8.50
2023-01-04T16:25:09.751Z,9.60
2023-01-04T16:27:35.438Z,9.50
2023-01-04T16:30:03.707Z,8.43
2023-01-04T16:32:30.396Z,8.10
2023-01-04T16:34:57.164Z,8.13
2023-01-04T16:37:30.719Z,7.23
2023-01-04T16:40:06.299Z,7.73
2023-01-04T16:42:33.902Z,7.97
2023-01-04T16:45:00.456Z,7.60
2023-01-04T16:47:27.076Z,7.27
2023-01-04T16:49:53.860Z,7.10
2023-01-04T16:52:20.847Z,7.37
2023-01-04T16:54:48.888Z,7.63
2023-01-04T16:57:15.436Z,7.47
2023-01-04T16:59:42.058Z,7.80
2023-01-04T17:02:10.898Z,8.20
2023-01-04T17:04:37.473Z,8.77
2023-01-04T17:07:04.877Z,7.77
2023-01-04T17:09:31.377Z,8.00
2023-01-04T17:14:49.094Z,7.83
2023-01-04T17:17:23.833Z,8.23
2023-01-04T17:19:50.453Z,7.93
2023-01-04T17:22:17.107Z,9.47
2023-01-04T17:24:43.797Z,8.00
2023-01-04T17:27:10.869Z,8.00
2023-01-04T17:29:37.416Z,8.90
2023-01-04T17:32:04.224Z,8.77
2023-01-04T17:34:30.873Z,8.37
2023-01-04T17:36:57.401Z,8.43
2023-01-04T17:39:26.806Z,8.97
2023-01-04T17:41:53.388Z,9.03
2023-01-04T17:44:22.625Z,9.17
2023-01-04T17:46:49.444Z,8.33
2023-01-04T17:49:27.687Z,8.47
2023-01-04T17:51:57.318Z,9.93
2023-01-04T17:54:25.675Z,9.93
2023-01-04T17:56:52.526Z,8.80
2023-01-04T17:59:19.836Z,9.27
2023-01-04T18:01:46.452Z,9.50
2023-01-04T18:04:13.072Z,9.20
2023-01-04T18:06:39.963Z,9.47
2023-01-04T18:09:07.239Z,9.60
2023-01-04T18:11:34.732Z,8.90
2023-01-04T18:14:04.259Z,9.23
2023-01-04T18:16:54.819Z,9.97
2023-01-04T18:19:22.306Z,10.03
2023-01-04T18:21:49.005Z,9.37
2023-01-04T18:24:35.284Z,10.13
2023-01-04T18:27:21.014Z,8.77
2023-01-04T18:29:48.921Z,9.10
2023-01-04T18:32:15.406Z,8.87
2023-01-04T18:34:41.909Z,10.17
2023-01-04T18:37:08.364Z,9.77
2023-01-04T18:39:35.221Z,9.67
2023-01-04T18:42:01.892Z,9.97
2023-01-04T18:44:33.215Z,10.17
2023-01-04T18:47:00.485Z,9.60
2023-01-04T18:49:27.014Z,9.10
2023-01-04T18:51:53.633Z,9.20
2023-01-04T18:54:21.891Z,9.40
2023-01-04T18:56:48.928Z,9.77
2023-01-04T18:59:17.419Z,9.67
2023-01-04T19:01:45.508Z,9.67
2023-01-04T19:04:12.894Z,9.53
2023-01-04T19:06:40.845Z,9.47
2023-01-04T19:09:08.215Z,9.57
2023-01-04T19:11:35.431Z,9.80
2023-01-04T19:14:03.115Z,9.93
2023-01-04T19:16:31.308Z,9.33
2023-01-04T19:18:59.355Z,9.27
2023-01-04T19:21:26.330Z,9.17
2023-01-04T19:23:53.253Z,9.90
2023-01-04T19:26:21.454Z,8.93
2023-01-04T19:28:48.318Z,9.10
2023-01-04T19:31:15.884Z,8.57
2023-01-04T19:33:42.922Z,8.73
2023-01-04T19:36:14.192Z,9.40
2023-01-04T19:38:41.329Z,10.10
2023-01-04T19:41:11.119Z,9.83
2023-01-04T19:43:38.819Z,10.63
2023-01-04T19:46:09.388Z,9.97
2023-01-04T19:48:35.964Z,10.63
2023-01-04T19:51:06.318Z,10.80
2023-01-04T19:53:32.984Z,10.00
2023-01-04T19:55:59.542Z,10.93
2023-01-04T19:58:26.121Z,10.40
2023-01-04T20:00:55.125Z,11.07
2023-01-04T20:03:22.546Z,10.40
2023-01-04T20:05:50.169Z,10.60
2023-01-04T20:08:16.694Z,10.60
2023-01-04T20:10:43.445Z,11.07
2023-01-04T20:13:10.177Z,10.37
2023-01-04T20:15:40.165Z,10.33
2023-01-04T20:18:13.386Z,11.63
2023-01-04T20:20:46.774Z,11.50
2023-01-04T20:23:14.292Z,11.67
2023-01-04T20:25:42.639Z,11.73
2023-01-04T20:28:09.251Z,11.63
2023-01-04T20:30:36.872Z,12.83
2023-01-04T20:33:03.876Z,11.63
2023-01-04T20:35:31.445Z,11.50
2023-01-04T20:37:58.001Z,13.50
2023-01-04T20:40:25.632Z,12.43
2023-01-04T20:43:10.750Z,11.90
2023-01-04T20:45:44.599Z,12.37
2023-01-04T20:48:12.006Z,12.43
2023-01-04T20:50:38.773Z,13.30
2023-01-04T20:53:05.626Z,13.10
2023-01-04T20:55:32.224Z,13.77
2023-01-04T20:57:58.711Z,14.77
2023-01-04T21:00:25.197Z,13.30
2023-01-04T21:02:52.122Z,13.37
2023-01-04T21:05:19.009Z,14.40
2023-01-04T21:07:45.559Z,13.87
2023-01-04T21:10:11.996Z,14.63
2023-01-04T21:12:38.732Z,15.20
2023-01-04T21:15:06.645Z,15.37
2023-01-04T21:17:33.116Z,15.57
2023-01-04T21:19:59.650Z,16.60
2023-01-04T21:22:26.767Z,15.67
2023-01-04T21:24:53.422Z,16.93
2023-01-04T21:27:23.353Z,17.07
2023-01-04T21:29:51.181Z,16.70
2023-01-04T21:32:17.668Z,16.93
2023-01-04T21:34:44.214Z,15.67
2023-01-04T21:37:10.916Z,15.87
2023-01-04T21:39:37.441Z,16.63
2023-01-04T21:42:03.906Z,16.00
2023-01-04T21:44:31.407Z,16.63
2023-01-04T21:46:57.945Z,15.90
2023-01-04T21:49:24.446Z,15.17
2023-01-04T21:51:50.972Z,16.63
2023-01-04T21:54:17.544Z,15.73
2023-01-04T21:56:45.102Z,15.40
2023-01-04T21:59:11.637Z,15.67
2023-01-04T22:01:38.364Z,16.10
2023-01-04T22:04:05.127Z,16.07
2023-01-04T22:06:33.267Z,16.47
2023-01-04T22:09:00.147Z,15.17
2023-01-04T22:11:26.673Z,16.60
2023-01-04T22:13:53.168Z,15.63
2023-01-04T22:16:25.219Z,16.50
2023-01-04T22:18:51.954Z,15.57
2023-01-04T22:21:27.573Z,15.73
2023-01-04T22:23:55.464Z,14.60
2023-01-04T22:26:22.185Z,15.07
2023-01-04T22:28:48.718Z,16.00
2023-01-04T22:31:15.440Z,14.43
2023-01-04T22:33:42.161Z,14.90
2023-01-04T22:36:17.145Z,14.37
2023-01-04T22:38:48.131Z,14.00
2023-01-04T22:41:17.280Z,14.17
2023-01-04T22:43:44.072Z,13.70
2023-01-04T22:46:15.489Z,13.07
2023-01-04T22:48:42.176Z,12.60
2023-01-04T22:51:14.317Z,12.13
2023-01-04T22:53:41.070Z,13.27
2023-01-04T22:56:21.864Z,12.87
2023-01-04T22:58:54.683Z,12.10
2023-01-04T23:01:32.228Z,12.10
2023-01-04T23:04:00.042Z,12.70
2023-01-04T23:06:27.795Z,11.60
2023-01-04T23:09:01.352Z,12.23
2023-01-04T23:11:29.335Z,12.07
2023-01-04T23:13:56.410Z,12.70
2023-01-04T23:16:29.515Z,13.00
2023-01-04T23:18:58.373Z,12.50
2023-01-04T23:21:25.101Z,13.00
2023-01-04T23:23:51.563Z,12.83
2023-01-04T23:26:21.396Z,13.37
2023-01-04T23:28:48.493Z,13.67
2023-01-04T23:31:17.842Z,13.07
2023-01-04T23:33:44.540Z,14.33
2023-01-04T23:36:11.014Z,14.50
2023-01-04T23:38:37.827Z,14.30
2023-01-04T23:41:04.603Z,13.40
2023-01-04T23:43:31.095Z,14.00
2023-01-04T23:45:57.644Z,14.50
2023-01-04T23:48:24.177Z,15.63
2023-01-04T23:50:57.428Z,14.73
2023-01-04T23:53:24.633Z,14.90
2023-01-04T23:55:56.342Z,14.87
2023-01-04T23:58:24.179Z,16.10
